createdAt,value
2018-03-26T00:00:12.310Z,5.69
2018-03-26T00:02:45.295Z,5.77
2018-03-26T00:05:18.192Z,5.80
2018-03-26T00:07:52.082Z,5.81
2018-03-26T00:10:25.059Z,5.80
2018-03-26T00:12:58.556Z,5.79
2018-03-26T00:15:32.444Z,5.72
2018-03-26T00:18:05.705Z,5.70
2018-03-26T00:20:38.586Z,5.68
2018-03-26T00:23:12.178Z,5.62
2018-03-26T00:25:45.431Z,5.60
2018-03-26T00:28:18.639Z,5.63
2018-03-26T00:30:52.321Z,5.63
2018-03-26T00:33:25.583Z,5.66
2018-03-26T00:35:58.859Z,5.64
2018-03-26T00:38:32.396Z,5.55
2018-03-26T00:41:05.297Z,5.46
2018-03-26T00:43:38.601Z,5.40
2018-03-26T00:46:12.000Z,5.53
2018-03-26T00:48:45.715Z,5.55
2018-03-26T00:51:21.793Z,5.56
2018-03-26T00:53:55.443Z,5.50
2018-03-26T00:56:29.126Z,5.47
2018-03-26T00:59:02.449Z,5.47
2018-03-26T01:01:35.817Z,5.51
2018-03-26T01:04:09.259Z,5.44
2018-03-26T01:06:42.740Z,5.40
2018-03-26T01:09:16.042Z,5.35
2018-03-26T01:11:50.069Z,5.34
2018-03-26T01:14:23.624Z,5.39
2018-03-26T01:16:57.231Z,5.35
2018-03-26T01:19:30.727Z,5.36
2018-03-26T01:22:03.598Z,5.43
2018-03-26T01:24:36.907Z,5.46
2018-03-26T01:27:10.223Z,5.47
2018-03-26T01:29:43.384Z,5.50
2018-03-26T01:32:16.411Z,5.53
2018-03-26T01:34:50.486Z,5.50
2018-03-26T01:37:24.701Z,5.49
2018-03-26T01:39:58.177Z,5.48
2018-03-26T01:42:30.999Z,5.61
2018-03-26T01:45:04.295Z,5.62
2018-03-26T01:47:37.540Z,5.58
2018-03-26T01:50:10.438Z,5.58
2018-03-26T01:52:44.609Z,5.47
2018-03-26T01:55:17.510Z,5.55
2018-03-26T01:57:50.611Z,5.54
2018-03-26T02:00:26.411Z,5.26
2018-03-26T02:02:59.307Z,5.57
2018-03-26T02:05:32.198Z,5.47
2018-03-26T02:08:06.237Z,5.44
2018-03-26T02:10:39.134Z,5.45
2018-03-26T02:13:13.359Z,5.48
2018-03-26T02:15:48.972Z,5.50
2018-03-26T02:18:23.170Z,5.47
2018-03-26T02:20:56.333Z,5.29
2018-03-26T02:23:29.618Z,5.44
2018-03-26T02:26:02.457Z,5.45
2018-03-26T02:28:35.870Z,5.52
2018-03-26T02:31:09.276Z,5.49
2018-03-26T02:33:42.086Z,5.45
2018-03-26T02:36:14.940Z,5.38
2018-03-26T02:41:30.033Z,5.05
2018-03-26T02:44:03.083Z,5.30
2018-03-26T02:46:36.112Z,5.32
2018-03-26T02:49:10.284Z,5.39
2018-03-26T02:51:43.582Z,5.44
2018-03-26T02:54:16.580Z,5.46
2018-03-26T02:56:50.006Z,5.45
2018-03-26T02:59:22.956Z,5.41
2018-03-26T03:01:56.545Z,5.33
2018-03-26T03:04:30.710Z,5.39
2018-03-26T03:07:04.073Z,5.36
2018-03-26T03:09:37.791Z,5.35
2018-03-26T03:12:11.079Z,5.32
2018-03-26T03:14:43.958Z,5.30
2018-03-26T03:17:16.935Z,5.32
2018-03-26T03:19:50.227Z,5.32
2018-03-26T03:22:23.166Z,5.34
2018-03-26T03:24:56.321Z,5.35
2018-03-26T03:27:29.213Z,5.29
2018-03-26T03:30:02.235Z,5.28
2018-03-26T03:32:35.439Z,5.46
2018-03-26T03:35:08.358Z,5.39
2018-03-26T03:37:41.334Z,5.32
2018-03-26T03:40:14.750Z,5.32
2018-03-26T03:42:47.768Z,5.32
2018-03-26T03:45:21.211Z,5.31
2018-03-26T03:47:55.569Z,5.32
2018-03-26T03:50:29.795Z,5.29
2018-03-26T03:53:02.679Z,5.36
2018-03-26T03:55:36.070Z,5.47
2018-03-26T03:58:09.027Z,5.42
2018-03-26T04:00:42.149Z,5.40
2018-03-26T04:03:15.249Z,5.31
2018-03-26T04:05:48.701Z,5.30
2018-03-26T04:08:22.155Z,5.28
2018-03-26T04:10:55.308Z,5.27
2018-03-26T04:13:28.666Z,5.26
2018-03-26T04:16:01.848Z,5.24
2018-03-26T04:18:34.684Z,5.33
2018-03-26T04:21:08.315Z,5.33
2018-03-26T04:23:42.097Z,5.33
2018-03-26T04:26:15.118Z,5.36
2018-03-26T04:28:48.174Z,5.36
2018-03-26T04:31:21.837Z,5.41
2018-03-26T04:33:54.738Z,5.36
2018-03-26T04:36:27.781Z,5.36
2018-03-26T04:39:00.981Z,5.39
2018-03-26T04:41:34.593Z,5.38
2018-03-26T04:44:07.515Z,5.49
2018-03-26T04:46:40.967Z,5.48
2018-03-26T04:49:14.304Z,5.37
2018-03-26T04:51:47.967Z,5.18
2018-03-26T04:54:21.116Z,5.20
2018-03-26T04:56:54.359Z,5.32
2018-03-26T04:59:27.521Z,5.38
2018-03-26T05:02:00.481Z,5.32
2018-03-26T05:04:33.720Z,5.26
2018-03-26T05:07:07.386Z,5.26
2018-03-26T05:09:41.452Z,5.35
2018-03-26T05:12:15.551Z,5.43
2018-03-26T05:14:48.888Z,5.33
2018-03-26T05:17:22.446Z,5.28
2018-03-26T05:19:56.135Z,5.30
2018-03-26T05:22:30.691Z,5.33
2018-03-26T05:25:04.699Z,5.39
2018-03-26T05:27:38.180Z,5.36
2018-03-26T05:30:12.413Z,5.39
2018-03-26T05:32:46.115Z,5.44
2018-03-26T05:35:19.767Z,5.46
2018-03-26T05:37:56.470Z,5.48
2018-03-26T05:40:31.800Z,5.51
2018-03-26T05:44:35.447Z,5.53
2018-03-26T05:47:11.158Z,5.47
2018-03-26T05:49:44.211Z,5.49
2018-03-26T05:52:18.122Z,5.55
2018-03-26T05:54:51.816Z,5.57
2018-03-26T05:57:26.091Z,5.58
2018-03-26T05:59:59.267Z,5.70
2018-03-26T06:02:33.436Z,5.76
2018-03-26T06:05:06.881Z,5.81
2018-03-26T06:07:40.126Z,5.98
2018-03-26T06:10:14.725Z,6.11
2018-03-26T06:12:48.187Z,6.22
2018-03-26T06:15:21.605Z,6.26
2018-03-26T06:17:56.452Z,6.25
2018-03-26T06:20:30.169Z,6.23
2018-03-26T06:23:06.977Z,6.24
2018-03-26T06:25:40.441Z,6.24
2018-03-26T06:28:15.610Z,6.31
2018-03-26T06:30:49.162Z,6.44
2018-03-26T06:33:22.504Z,6.58
2018-03-26T06:35:56.182Z,6.65
2018-03-26T06:38:29.722Z,6.72
2018-03-26T06:41:03.525Z,6.83
2018-03-26T06:43:40.203Z,6.87
2018-03-26T06:46:15.432Z,6.89
2018-03-26T06:48:48.573Z,6.98
2018-03-26T06:51:21.831Z,7.03
2018-03-26T06:53:55.609Z,7.09
2018-03-26T06:56:28.792Z,7.38
2018-03-26T06:59:01.923Z,7.38
2018-03-26T07:01:35.187Z,7.45
2018-03-26T07:04:10.529Z,7.57
2018-03-26T07:06:45.319Z,7.58
2018-03-26T07:09:18.612Z,7.51
2018-03-26T07:11:53.589Z,7.53
2018-03-26T07:14:27.028Z,7.61
2018-03-26T07:17:00.751Z,7.58
2018-03-26T07:19:34.705Z,7.63
2018-03-26T07:22:07.701Z,7.78
2018-03-26T07:24:42.034Z,7.85
2018-03-26T07:27:15.862Z,7.96
2018-03-26T07:29:49.068Z,8.05
2018-03-26T07:32:22.894Z,8.23
2018-03-26T07:34:56.034Z,8.46
2018-03-26T07:37:29.064Z,8.57
2018-03-26T07:40:07.722Z,8.69
2018-03-26T07:42:41.852Z,8.82
2018-03-26T07:45:17.672Z,8.73
2018-03-26T07:47:51.892Z,8.89
2018-03-26T07:50:25.705Z,8.91
2018-03-26T07:52:59.397Z,9.08
2018-03-26T07:55:32.868Z,9.08
2018-03-26T07:58:07.754Z,8.87
2018-03-26T08:00:42.287Z,9.00
2018-03-26T08:03:18.129Z,9.11
2018-03-26T08:05:51.626Z,9.05
2018-03-26T08:08:25.301Z,9.21
2018-03-26T08:10:58.360Z,9.34
2018-03-26T08:13:32.085Z,9.18
2018-03-26T08:16:06.355Z,9.30
2018-03-26T08:18:39.417Z,8.98
2018-03-26T08:21:14.667Z,9.19
2018-03-26T08:23:50.710Z,9.39
2018-03-26T08:26:24.297Z,9.13
2018-03-26T08:28:57.621Z,9.01
2018-03-26T08:31:31.816Z,8.99
2018-03-26T08:34:04.882Z,9.17
2018-03-26T08:36:37.997Z,9.31
2018-03-26T08:39:11.885Z,9.08
2018-03-26T08:41:46.204Z,9.11
2018-03-26T08:44:19.600Z,9.00
2018-03-26T08:46:53.716Z,9.12
2018-03-26T08:49:27.673Z,9.41
2018-03-26T08:52:00.929Z,9.22
2018-03-26T08:54:34.678Z,9.36
2018-03-26T08:57:08.028Z,9.44
2018-03-26T08:59:41.219Z,9.31
2018-03-26T09:02:15.901Z,9.31
2018-03-26T09:04:50.074Z,9.01
2018-03-26T09:07:23.428Z,9.09
2018-03-26T09:09:59.964Z,9.06
2018-03-26T09:12:36.139Z,9.08
2018-03-26T09:15:09.600Z,9.20
2018-03-26T09:17:43.888Z,9.04
2018-03-26T09:20:18.314Z,9.14
2018-03-26T09:22:51.449Z,9.17
2018-03-26T09:25:30.241Z,9.08
2018-03-26T09:28:04.075Z,9.13
2018-03-26T09:30:38.600Z,9.01
2018-03-26T09:33:13.087Z,8.95
2018-03-26T09:35:46.665Z,8.92
2018-03-26T09:38:42.743Z,9.04
2018-03-26T09:41:19.818Z,8.92
2018-03-26T09:43:52.885Z,9.04
2018-03-26T09:46:26.199Z,9.05
2018-03-26T09:49:02.354Z,8.96
2018-03-26T09:51:36.058Z,8.95
2018-03-26T09:54:09.614Z,8.80
2018-03-26T09:56:43.888Z,8.73
2018-03-26T09:59:18.005Z,8.66
2018-03-26T10:01:55.479Z,8.77
2018-03-26T10:04:28.685Z,8.91
2018-03-26T10:07:04.098Z,9.01
2018-03-26T10:09:37.388Z,9.14
2018-03-26T10:12:11.808Z,9.26
2018-03-26T10:14:45.825Z,9.27
2018-03-26T10:17:19.439Z,9.45
2018-03-26T10:19:52.863Z,9.20
2018-03-26T10:22:26.264Z,9.11
2018-03-26T10:25:05.245Z,8.95
2018-03-26T10:27:40.765Z,9.00
2018-03-26T10:30:15.731Z,8.83
2018-03-26T10:32:49.350Z,8.54
2018-03-26T10:35:23.096Z,8.68
2018-03-26T10:37:56.650Z,8.70
2018-03-26T10:40:30.131Z,8.67
2018-03-26T10:43:14.669Z,8.78
2018-03-26T10:46:00.629Z,8.84
2018-03-26T10:48:39.512Z,8.84
2018-03-26T10:51:12.933Z,8.82
2018-03-26T10:53:46.976Z,8.96
2018-03-26T10:56:22.099Z,8.84
2018-03-26T10:58:56.031Z,8.96
2018-03-26T11:01:30.069Z,8.68
2018-03-26T11:04:03.514Z,8.83
2018-03-26T11:06:37.336Z,8.65
2018-03-26T11:09:14.230Z,8.86
2018-03-26T11:11:48.521Z,8.84
2018-03-26T11:14:21.581Z,8.78
2018-03-26T11:16:54.792Z,8.71
2018-03-26T11:19:29.613Z,8.68
2018-03-26T11:22:11.098Z,8.65
2018-03-26T11:24:45.078Z,8.78
2018-03-26T11:27:18.670Z,8.83
2018-03-26T11:29:53.972Z,8.87
2018-03-26T11:32:27.479Z,8.81
2018-03-26T11:35:00.741Z,8.80
2018-03-26T11:37:34.535Z,8.86
2018-03-26T11:40:08.903Z,8.92
2018-03-26T11:42:43.788Z,9.00
2018-03-26T11:45:17.333Z,9.02
2018-03-26T11:47:51.170Z,8.89
2018-03-26T11:50:24.970Z,9.06
2018-03-26T11:52:58.463Z,9.03
2018-03-26T11:55:32.126Z,9.18
2018-03-26T11:58:05.544Z,9.08
2018-03-26T12:00:40.912Z,9.02
2018-03-26T12:03:14.858Z,8.90
2018-03-26T12:05:48.024Z,8.98
2018-03-26T12:08:21.146Z,9.07
2018-03-26T12:10:55.511Z,9.05
2018-03-26T12:13:28.593Z,9.16
2018-03-26T12:16:01.706Z,9.19
2018-03-26T12:18:37.977Z,8.93
2018-03-26T12:21:11.457Z,8.96
2018-03-26T12:25:03.025Z,8.80
2018-03-26T12:27:41.983Z,8.82
2018-03-26T12:30:21.220Z,8.90
2018-03-26T12:32:54.785Z,8.96
2018-03-26T12:35:39.441Z,8.94
2018-03-26T12:38:12.456Z,9.07
2018-03-26T12:40:51.427Z,9.37
2018-03-26T12:43:24.678Z,9.44
2018-03-26T12:47:02.601Z,9.45
2018-03-26T12:49:36.332Z,9.37
2018-03-26T12:52:51.629Z,9.31
2018-03-26T12:55:27.928Z,9.23
2018-03-26T12:58:15.389Z,8.99
2018-03-26T13:01:01.712Z,9.03
2018-03-26T13:03:35.827Z,9.15
2018-03-26T13:06:09.539Z,9.24
2018-03-26T13:08:45.716Z,9.11
2018-03-26T13:11:19.066Z,9.15
2018-03-26T13:13:52.662Z,9.18
2018-03-26T13:16:26.559Z,9.06
2018-03-26T13:19:01.204Z,9.12
2018-03-26T13:21:36.919Z,8.82
2018-03-26T13:24:10.773Z,8.74
2018-03-26T13:26:46.443Z,8.76
2018-03-26T13:29:20.930Z,8.82
2018-03-26T13:31:55.089Z,8.90
2018-03-26T13:34:28.876Z,8.90
2018-03-26T13:37:02.276Z,8.98
2018-03-26T13:39:35.640Z,8.88
2018-03-26T13:42:09.720Z,8.71
2018-03-26T13:44:43.615Z,8.84
2018-03-26T13:47:17.260Z,8.80
2018-03-26T13:49:52.142Z,8.64
2018-03-26T13:52:26.320Z,8.57
2018-03-26T13:55:00.552Z,8.54
2018-03-26T13:57:34.120Z,8.40
2018-03-26T14:00:08.218Z,8.53
2018-03-26T14:02:42.949Z,8.64
2018-03-26T14:05:19.247Z,8.59
2018-03-26T14:07:53.963Z,8.40
2018-03-26T14:12:42.429Z,8.29
2018-03-26T14:17:55.711Z,8.25
2018-03-26T14:22:52.036Z,8.56
2018-03-26T14:25:26.076Z,8.75
2018-03-26T14:27:59.883Z,8.79
2018-03-26T14:30:34.238Z,9.07
2018-03-26T14:33:12.241Z,9.03
2018-03-26T14:35:49.077Z,9.04
2018-03-26T14:38:25.573Z,9.24
2018-03-26T14:40:59.606Z,9.03
2018-03-26T14:43:35.044Z,9.37
2018-03-26T14:46:14.167Z,9.74
2018-03-26T14:48:49.650Z,9.54
2018-03-26T14:51:22.784Z,9.69
2018-03-26T14:53:58.100Z,9.58
2018-03-26T14:56:31.094Z,9.70
2018-03-26T14:59:04.353Z,9.73
2018-03-26T15:01:38.486Z,9.77
2018-03-26T15:04:12.168Z,9.74
2018-03-26T15:06:45.570Z,9.63
2018-03-26T15:09:19.316Z,9.56
2018-03-26T15:11:54.042Z,9.63
2018-03-26T15:14:27.595Z,9.82
2018-03-26T15:17:02.035Z,9.93
2018-03-26T15:19:37.878Z,10.07
2018-03-26T15:22:13.291Z,10.35
2018-03-26T15:24:46.509Z,10.34
2018-03-26T15:27:20.154Z,10.33
2018-03-26T15:29:53.835Z,10.29
2018-03-26T15:32:26.960Z,10.26
2018-03-26T15:35:01.501Z,10.20
2018-03-26T15:37:35.177Z,10.00
2018-03-26T15:40:08.254Z,9.93
2018-03-26T15:42:43.715Z,10.11
2018-03-26T15:45:17.902Z,10.07
2018-03-26T15:47:51.206Z,10.03
2018-03-26T15:50:25.080Z,9.96
2018-03-26T15:52:58.887Z,9.84
2018-03-26T15:55:32.726Z,9.70
2018-03-26T15:58:07.233Z,9.70
2018-03-26T16:00:47.618Z,9.72
2018-03-26T16:03:25.188Z,9.60
2018-03-26T16:05:58.787Z,9.53
2018-03-26T16:08:32.289Z,9.42
2018-03-26T16:11:06.773Z,9.52
2018-03-26T16:13:40.335Z,9.39
2018-03-26T16:16:13.504Z,9.31
2018-03-26T16:18:47.963Z,9.23
2018-03-26T16:21:22.210Z,9.23
2018-03-26T16:23:55.394Z,9.20
2018-03-26T16:26:29.655Z,9.21
2018-03-26T16:29:02.785Z,9.09
2018-03-26T16:31:35.951Z,9.10
2018-03-26T16:34:09.517Z,8.92
2018-03-26T16:36:42.547Z,8.78
2018-03-26T16:39:15.809Z,8.58
2018-03-26T16:41:50.379Z,8.47
2018-03-26T16:44:23.953Z,8.31
2018-03-26T16:46:57.574Z,8.35
2018-03-26T16:49:31.930Z,8.39
2018-03-26T16:52:05.116Z,8.42
2018-03-26T16:54:38.230Z,8.37
2018-03-26T16:57:12.847Z,8.32
2018-03-26T16:59:46.191Z,8.28
2018-03-26T17:02:19.923Z,8.21
2018-03-26T17:04:55.892Z,8.10
2018-03-26T17:07:30.620Z,8.12
2018-03-26T17:10:06.425Z,8.14
2018-03-26T17:12:41.529Z,8.09
2018-03-26T17:15:16.387Z,8.14
2018-03-26T17:17:50.292Z,8.03
2018-03-26T17:20:24.813Z,7.98
2018-03-26T17:22:58.019Z,7.94
2018-03-26T17:25:31.293Z,7.85
2018-03-26T17:28:04.523Z,7.88
2018-03-26T17:30:39.190Z,7.93
2018-03-26T17:33:12.971Z,7.88
2018-03-26T17:35:47.041Z,7.82
2018-03-26T17:38:20.556Z,7.93
2018-03-26T17:40:55.288Z,7.75
2018-03-26T17:43:31.976Z,7.76
2018-03-26T17:46:05.671Z,7.64
2018-03-26T17:48:46.997Z,7.51
2018-03-26T17:51:21.181Z,7.46
2018-03-26T17:53:56.164Z,7.40
2018-03-26T17:56:29.484Z,7.35
2018-03-26T17:59:03.238Z,7.37
2018-03-26T18:01:38.469Z,7.31
2018-03-26T18:04:13.153Z,7.39
2018-03-26T18:06:46.658Z,7.46
2018-03-26T18:09:20.742Z,7.42
2018-03-26T18:11:53.915Z,7.41
2018-03-26T18:14:27.500Z,7.26
2018-03-26T18:17:02.380Z,7.18
2018-03-26T18:19:35.378Z,7.21
2018-03-26T18:22:09.795Z,7.22
2018-03-26T18:24:49.585Z,7.26
2018-03-26T18:27:24.373Z,7.16
2018-03-26T18:29:58.530Z,7.03
2018-03-26T18:32:33.053Z,6.92
2018-03-26T18:35:06.687Z,6.90
2018-03-26T18:37:41.032Z,6.91
2018-03-26T18:40:14.499Z,6.85
2018-03-26T18:42:47.815Z,6.81
2018-03-26T18:45:23.514Z,6.79
2018-03-26T18:48:01.185Z,6.81
2018-03-26T18:50:37.366Z,6.81
2018-03-26T18:53:11.219Z,6.83
2018-03-26T18:55:50.725Z,6.85
2018-03-26T18:58:28.588Z,6.74
2018-03-26T19:01:08.378Z,6.69
2018-03-26T19:03:47.239Z,6.69
2018-03-26T19:06:23.576Z,6.68
2018-03-26T19:09:00.622Z,6.58
2018-03-26T19:11:36.764Z,6.47
2018-03-26T19:14:11.090Z,6.42
2018-03-26T19:16:45.859Z,6.33
2018-03-26T19:19:22.870Z,6.21
2018-03-26T19:22:02.377Z,6.04
2018-03-26T19:24:39.429Z,5.96
2018-03-26T19:27:18.488Z,5.83
2018-03-26T19:29:56.711Z,5.83
2018-03-26T19:32:31.590Z,5.74
2018-03-26T19:35:06.099Z,5.71
2018-03-26T19:37:39.743Z,5.67
2018-03-26T19:40:14.966Z,5.67
2018-03-26T19:42:50.306Z,5.66
2018-03-26T19:45:26.671Z,5.72
2018-03-26T19:48:02.400Z,5.83
2018-03-26T19:50:43.005Z,5.85
2018-03-26T19:53:17.328Z,5.87
2018-03-26T19:55:54.936Z,5.90
2018-03-26T19:58:29.252Z,5.93
2018-03-26T20:01:03.097Z,6.02
2018-03-26T20:03:38.201Z,6.03
2018-03-26T20:06:14.244Z,6.04
2018-03-26T20:08:47.743Z,6.10
2018-03-26T20:11:22.933Z,6.20
2018-03-26T20:14:00.089Z,6.18
2018-03-26T20:16:38.473Z,6.14
2018-03-26T20:19:13.413Z,6.03
2018-03-26T20:21:50.521Z,6.11
2018-03-26T20:24:28.594Z,6.12
2018-03-26T20:27:03.248Z,6.00
2018-03-26T20:29:42.917Z,5.94
2018-03-26T20:32:22.609Z,5.94
2018-03-26T20:35:00.661Z,6.03
2018-03-26T20:37:36.447Z,6.06
2018-03-26T20:40:10.639Z,6.00
2018-03-26T20:42:46.473Z,5.97
2018-03-26T20:45:24.536Z,5.99
2018-03-26T20:48:01.995Z,5.97
2018-03-26T20:50:40.716Z,6.03
2018-03-26T20:53:18.505Z,6.00
2018-03-26T20:55:54.372Z,5.93
2018-03-26T20:58:39.004Z,5.98
2018-03-26T21:01:18.428Z,6.02
2018-03-26T21:03:56.221Z,5.99
2018-03-26T21:06:32.287Z,5.96
2018-03-26T21:09:08.543Z,5.93
2018-03-26T21:11:45.415Z,5.93
2018-03-26T21:14:21.295Z,5.94
2018-03-26T21:16:54.679Z,5.90
2018-03-26T21:19:28.559Z,5.84
2018-03-26T21:22:02.525Z,5.97
2018-03-26T21:24:36.690Z,6.07
2018-03-26T21:27:10.383Z,6.04
2018-03-26T21:29:49.315Z,6.07
2018-03-26T21:32:30.418Z,6.03
2018-03-26T21:35:05.292Z,5.94
2018-03-26T21:37:38.738Z,5.99
2018-03-26T21:40:12.556Z,6.01
2018-03-26T21:42:46.286Z,5.96
2018-03-26T21:45:20.112Z,5.90
2018-03-26T21:47:53.231Z,5.87
2018-03-26T21:50:26.991Z,5.77
2018-03-26T21:53:00.033Z,5.78
2018-03-26T21:55:33.211Z,5.66
2018-03-26T21:58:06.754Z,5.66
2018-03-26T22:00:40.270Z,5.68
2018-03-26T22:03:15.666Z,5.66
2018-03-26T22:05:49.196Z,5.70
2018-03-26T22:08:22.417Z,5.56
2018-03-26T22:10:56.082Z,5.57
2018-03-26T22:13:30.170Z,5.58
2018-03-26T22:16:03.871Z,5.56
2018-03-26T22:18:37.111Z,5.47
2018-03-26T22:21:11.085Z,5.40
2018-03-26T22:23:44.229Z,5.47
2018-03-26T22:26:17.283Z,5.46
2018-03-26T22:28:51.079Z,5.37
2018-03-26T22:31:24.309Z,5.33
2018-03-26T22:33:57.465Z,5.38
2018-03-26T22:36:32.188Z,5.42
2018-03-26T22:39:05.494Z,5.48
2018-03-26T22:41:39.396Z,5.55
2018-03-26T22:44:12.845Z,5.53
2018-03-26T22:46:46.005Z,5.65
2018-03-26T22:49:19.706Z,5.63
2018-03-26T22:51:55.354Z,5.44
2018-03-26T22:54:29.274Z,5.37
2018-03-26T22:57:04.041Z,5.35
2018-03-26T22:59:37.459Z,5.32
2018-03-26T23:02:11.167Z,5.28
2018-03-26T23:04:44.500Z,5.33
2018-03-26T23:07:17.924Z,5.20
2018-03-26T23:09:50.962Z,5.20
2018-03-26T23:12:24.113Z,5.29
2018-03-26T23:14:57.670Z,5.27
2018-03-26T23:17:31.091Z,5.26
2018-03-26T23:20:05.283Z,5.21
2018-03-26T23:22:47.422Z,5.17
2018-03-26T23:25:21.163Z,5.16
2018-03-26T23:27:54.620Z,5.14
2018-03-26T23:30:28.250Z,5.13
2018-03-26T23:33:01.651Z,5.08
2018-03-26T23:35:35.250Z,5.00
2018-03-26T23:38:09.080Z,4.88
2018-03-26T23:40:44.083Z,4.87
2018-03-26T23:43:19.666Z,4.87
2018-03-26T23:45:53.743Z,4.88
2018-03-26T23:48:27.285Z,4.80
2018-03-26T23:51:01.647Z,4.79
2018-03-26T23:53:34.808Z,4.73
2018-03-26T23:56:08.661Z,4.77
2018-03-26T23:58:42.238Z,4.83
